Data for 02/09/2005

Time Sea-Level Adjusted Pressure Absolute Pressure Temperature Relative Humidity Dew Point   
(mb) (inHg) (mb) (inHg) (C) (F) (%) (C) (F)
00:05 1021 30.15 850 25.1 -3.7 25.4 60 -10.4 13.3
00:10 1021 30.15 850 25.1 -3.6 25.5 59 -10.5 13.2
00:15 1021 30.15 850 25.1 -3.6 25.4 59 -10.4 13.2
00:20 1021 30.15 850 25.1 -3.7 25.3 60 -10.4 13.2
00:25 1021 30.15 851 25.13 -4.1 24.7 62 -10.3 13.5
00:30 1021 30.15 851 25.13 -5.2 22.7 66 -10.6 12.9
00:35 1021 30.15 851 25.13 -5.2 22.6 64 -10.9 12.3
00:40 1021 30.15 851 25.13 -5.1 22.8 63 -11.1 12.1
00:45 1021 30.15 851 25.13 -4.9 23.2 63 -10.9 12.4
00:50 1021 30.15 851 25.13 -4.8 23.3 62 -11 12.2
00:55 1021 30.15 851 25.13 -4.7 23.6 62 -11 12.3
01:00 1022 30.18 851 25.13 -4.4 24 60 -11 12.2
01:05 1022 30.18 851 25.13 -4.1 24.7 60 -10.8 12.5
01:10 1022 30.18 851 25.13 -4 24.8 59 -10.8 12.6
01:15 1022 30.18 851 25.13 -4 24.8 60 -10.7 12.7
01:20 1022 30.18 851 25.13 -4.1 24.6 61 -10.6 12.9
01:25 1022 30.18 851 25.13 -4.1 24.6 61 -10.6 12.9
01:30 1022 30.18 851 25.13 -4.1 24.6 61 -10.6 12.9
01:35 1022 30.18 851 25.13 -4.2 24.4 61 -10.6 12.9
01:40 1022 30.18 851 25.13 -4.5 24 62 -10.7 12.8
01:45 1022 30.18 851 25.13 -4.7 23.5 63 -10.7 12.8
01:50 1022 30.18 851 25.13 -5.3 22.5 65 -10.9 12.4
01:55 1022 30.18 851 25.13 -5.7 21.7 66 -11.1 12
02:00 1022 30.18 851 25.13 -5.4 22.2 66 -10.8 12.5
02:05 1022 30.18 851 25.13 -5.5 22.2 66 -10.8 12.6
02:10 1022 30.18 851 25.13 -5.5 22.1 66 -10.8 12.6
02:15 1022 30.18 851 25.13 -5.8 21.5 68 -10.8 12.6
02:20 1022 30.18 851 25.13 -5.6 21.9 68 -10.5 13
02:25 1022 30.18 851 25.13 -6.1 21.1 70 -10.8 12.6
02:30 1022 30.18 851 25.13 -6.1 21.1 69 -10.8 12.5
02:35 1022 30.18 851 25.13 -6 21.3 68 -10.9 12.4
02:40 1022 30.18 851 25.13 -5.7 21.8 68 -10.7 12.7
02:45 1022 30.18 851 25.13 -5.7 21.7 69 -10.6 12.9
02:50 1022 30.18 851 25.13 -5.7 21.7 69 -10.5 13.1
02:55 1022 30.18 851 25.13 -5.9 21.3 73 -10.1 13.9
03:00 1022 30.18 851 25.13 -5.9 21.4 70 -10.6 12.9
03:05 1022 30.18 851 25.13 -5.8 21.6 70 -10.4 13.2
03:10 1022 30.18 851 25.13 -6.1 21 72 -10.4 13.2
03:15 1022 30.18 851 25.13 -6.1 21 71 -10.6 12.9
03:20 1022 30.18 851 25.13 -6.2 20.8 71 -10.6 12.9
03:25 1022 30.18 851 25.13 -6.6 20.2 72 -10.8 12.5
03:30 1022 30.18 851 25.13 -6.7 19.9 73 -10.8 12.6
03:35 1022 30.18 851 25.13 -6.6 20.1 72 -10.9 12.5
03:40 1022 30.18 851 25.13 -6.5 20.3 71 -10.9 12.3
03:45 1022 30.18 851 25.13 -6.7 20 71 -11.1 12
03:50 1022 30.18 851 25.13 -6.5 20.3 70 -11.1 12
03:55 1022 30.18 851 25.13 -6.3 20.6 69 -11.2 11.9
04:00 1022 30.18 851 25.13 -5.8 21.6 67 -11 12.1
04:05 1022 30.18 851 25.13 -5.4 22.3 65 -10.9 12.4
04:10 1022 30.18 851 25.13 -5.4 22.2 66 -10.7 12.7
04:15 1022 30.18 851 25.13 -6.1 21.1 69 -10.8 12.6
04:20 1022 30.18 851 25.13 -6.5 20.4 71 -10.9 12.3
04:25 1022 30.18 851 25.13 -6.6 20.1 72 -10.9 12.5
04:30 1022 30.18 851 25.13 -6.9 19.5 73 -11 12.2
04:35 1022 30.18 851 25.13 -7.3 19 74 -11.2 11.9
04:40 1022 30.18 851 25.13 -7.3 18.8 73 -11.3 11.6
04:45 1022 30.18 851 25.13 -7.4 18.6 73 -11.4 11.4
04:50 1022 30.18 851 25.13 -7.6 18.3 75 -11.3 11.6
04:55 1022 30.18 851 25.13 -7.5 18.5 72 -11.7 10.9
05:00 1022 30.18 851 25.13 -7.5 18.4 74 -11.5 11.3
05:05 1022 30.18 851 25.13 -7.7 18.2 72 -11.8 10.8
05:10 1022 30.18 851 25.13 -7.9 17.9 74 -11.7 10.9
05:15 1022 30.18 851 25.13 -7.6 18.3 76 -11.2 11.9
05:20 1022 30.18 851 25.13 -7.3 18.8 74 -11.2 11.8
05:25 1022 30.18 851 25.13 -7.6 18.3 75 -11.3 11.7
05:30 1022 30.18 851 25.13 -7.7 18.1 72 -11.9 10.6
05:35 1022 30.18 851 25.13 -7.9 17.8 72 -12 10.4
05:40 1022 30.18 851 25.13 -8 17.7 73 -12 10.4
05:45 1022 30.18 851 25.13 -8.1 17.5 72 -12.2 10.1
05:50 1022 30.18 851 25.13 -8.1 17.5 74 -12 10.5
05:55 1022 30.18 851 25.13 -7.9 17.8 72 -12.1 10.3
06:00 1022 30.18 851 25.13 -7.9 17.7 74 -11.7 10.9
06:05 1022 30.18 851 25.13 -7.9 17.8 72 -12.1 10.3
06:10 1022 30.18 851 25.13 -8.1 17.4 74 -12 10.4
06:15 1022 30.18 851 25.13 -8 17.6 75 -11.7 10.9
06:20 1022 30.18 851 25.13 -8.1 17.5 74 -11.9 10.6
06:25 1022 30.18 851 25.13 -8.2 17.3 73 -12.2 10.1
06:30 1022 30.18 851 25.13 -8.2 17.2 73 -12.3 9.9
06:35 1022 30.18 851 25.13 -8.3 17 73 -12.3 9.9
06:40 1022 30.18 851 25.13 -8.3 17 74 -12.1 10.1
06:45 1022 30.18 851 25.13 -8.2 17.2 74 -12 10.4
06:50 1022 30.18 851 25.13 -8.3 17.1 74 -12.2 10.1
06:55 1022 30.18 851 25.13 -8.2 17.2 73 -12.3 9.8
07:00 1022 30.18 851 25.13 -8.3 17.1 72 -12.4 9.7
07:05 1022 30.18 851 25.13 -8.2 17.3 73 -12.2 10
07:10 1022 30.18 851 25.13 -8.3 17.1 73 -12.4 9.7
07:15 1022 30.18 851 25.13 -8.4 16.9 72 -12.5 9.4
07:20 1022 30.18 851 25.13 -8.6 16.5 73 -12.6 9.4
07:25 1022 30.18 851 25.13 -8.6 16.6 73 -12.6 9.2
07:30 1022 30.18 852 25.16 -8.5 16.6 74 -12.4 9.6
07:35 1022 30.18 852 25.16 -8.4 16.9 72 -12.5 9.5
07:40 1022 30.18 852 25.16 -8.4 16.8 73 -12.4 9.6
07:45 1022 30.18 852 25.16 -8.6 16.5 73 -12.6 9.3
07:50 1022 30.18 852 25.16 -8.7 16.4 73 -12.7 9.2
07:55 1022 30.18 852 25.16 -8.8 16.2 73 -12.8 9
08:00 1022 30.18 852 25.16 -9 15.8 74 -12.8 9
08:05 1022 30.18 852 25.16 -8.8 16.2 72 -12.9 8.7
08:10 1022 30.18 852 25.16 -8.5 16.6 71 -12.8 8.9
08:15 1022 30.18 852 25.16 -8.5 16.7 70 -13 8.6
08:20 1022 30.18 852 25.16 -8.3 17 70 -12.9 8.8
08:25 1022 30.18 852 25.16 -8.2 17.2 70 -12.8 8.9
08:30 1022 30.18 852 25.16 -7.8 18 68 -12.7 9.1
08:35 1022 30.18 852 25.16 -7.5 18.6 67 -12.6 9.3
08:40 1022 30.18 852 25.16 -7.3 18.9 67 -12.4 9.6
08:45 1022 30.18 852 25.16 -7.2 19 66 -12.5 9.4
08:50 1022 30.18 852 25.16 -7.1 19.2 66 -12.5 9.5
08:55 1022 30.18 852 25.16 -7 19.4 66 -12.3 9.8
09:00 1022 30.18 852 25.16 -6.5 20.3 64 -12.2 10
09:05 1022 30.18 852 25.16 -6 21.1 61 -12.3 9.8
09:10 1022 30.18 852 25.16 -5.7 21.8 60 -12.2 10.1
09:15 1022 30.18 852 25.16 -5.3 22.4 58 -12.3 9.9
09:20 1022 30.18 852 25.16 -5 22.9 60 -11.7 10.9
09:25 1022 30.18 852 25.16 -4.4 24.1 56 -11.9 10.6
09:30 1022 30.18 852 25.16 -4.2 24.5 57 -11.4 11.4
09:35 1022 30.18 852 25.16 -3.9 24.9 56 -11.4 11.5
09:40 1022 30.18 852 25.16 -3.5 25.8 57 -10.9 12.4
09:45 1022 30.18 852 25.16 -3.7 25.3 56 -11.3 11.7
09:50 1022 30.18 852 25.16 -3.2 26.2 54 -11.3 11.6
09:55 1022 30.18 852 25.16 -2.6 27.4 51 -11.5 11.3
10:00 1022 30.18 852 25.16 -2.5 27.4 52 -11.1 11.9
10:05 1022 30.18 852 25.16 -2.5 27.5 52 -11.2 11.9
10:10 1022 30.18 852 25.16 -1.8 28.8 49 -11.2 11.8
10:15 1022 30.18 852 25.16 -1.7 29 49 -10.9 12.4
10:20 1022 30.18 852 25.16 -1.3 29.7 48 -10.9 12.4
10:25 1022 30.18 852 25.16 -1.4 29.4 49 -10.8 12.5
10:30 1022 30.18 852 25.16 -1.5 29.3 48 -11 12.1
10:35 1022 30.18 852 25.16 -1.1 30 48 -10.8 12.5
10:40 1022 30.18 852 25.16 -0.8 30.5 48 -10.6 13
10:45 1022 30.18 852 25.16 -0.9 30.3 50 -10.2 13.6
10:50 1022 30.18 852 25.16 -0.6 30.9 48 -10.4 13.3
10:55 1022 30.18 852 25.16 0.2 32.4 44 -10.6 12.9
11:00 1022 30.18 852 25.16 0.1 32.2 47 -10 14
11:05 1022 30.18 852 25.16 0.6 33 43 -10.6 12.9
11:10 1022 30.18 852 25.16 0.3 32.6 45 -10.3 13.4
11:15 1022 30.18 851 25.13 0 32 45 -10.6 12.9
11:20 1022 30.18 851 25.13 0.6 33 44 -10.4 13.3
11:25 1022 30.18 851 25.13 0.2 32.4 46 -10 14
11:30 1022 30.18 851 25.13 -0 32 46 -10.4 13.3
11:35 1022 30.18 851 25.13 0.7 33.3 44 -10.3 13.5
11:40 1022 30.18 851 25.13 1.4 34.4 41 -10.4 13.3
11:45 1022 30.18 851 25.13 1.5 34.7 42 -9.9 14.1
11:50 1022 30.18 851 25.13 0.8 33.5 45 -9.8 14.4
11:55 1022 30.18 851 25.13 0.5 32.9 47 -9.5 14.9
12:00 1022 30.18 851 25.13 0.6 33.1 47 -9.5 15
12:05 1022 30.18 851 25.13 0.2 32.3 47 -10 14.1
12:10 1022 30.18 851 25.13 0.9 33.6 44 -10.2 13.7
12:15 1022 30.18 851 25.13 1 33.7 45 -9.7 14.5
12:20 1022 30.18 851 25.13 1.8 35.3 39 -10.7 12.8
12:25 1022 30.18 851 25.13 1.9 35.4 42 -9.8 14.4
12:30 1022 30.18 851 25.13 2.3 36.2 41 -9.7 14.6
12:35 1022 30.18 851 25.13 2.6 36.8 39 -10 14
12:40 1021 30.15 851 25.13 2.6 36.6 39 -10.2 13.7
12:45 1021 30.15 851 25.13 2.7 36.9 39 -9.8 14.3
12:50 1021 30.15 851 25.13 1.8 35.3 43 -9.6 14.7
12:55 1021 30.15 851 25.13 2 35.7 40 -10.4 13.4
13:00 1021 30.15 851 25.13 2.7 36.9 38 -10.1 13.8
13:05 1021 30.15 851 25.13 3.1 37.6 36 -10.7 12.8
13:10 1021 30.15 851 25.13 3.2 37.8 37 -10.1 13.9
13:15 1021 30.15 851 25.13 3.8 38.8 33 -11 12.2
13:20 1021 30.15 850 25.1 3.9 39.1 34 -10.7 12.8
13:25 1021 30.15 850 25.1 3.7 38.6 35 -10.4 13.2
13:30 1021 30.15 850 25.1 3.2 37.7 34 -11.4 11.4
13:35 1021 30.15 850 25.1 3.8 38.8 34 -10.8 12.6
13:40 1021 30.15 850 25.1 4.2 39.6 33 -10.7 12.8
13:45 1021 30.15 850 25.1 4.2 39.6 32 -11.2 11.9
13:50 1021 30.15 850 25.1 4.2 39.5 33 -10.9 12.4
13:55 1021 30.15 850 25.1 4.5 40.1 32 -10.7 12.8
14:00 1021 30.15 850 25.1 5.2 41.4 31 -10.6 12.9
14:05 1021 30.15 850 25.1 4.9 40.8 36 -9.1 15.5
14:10 1021 30.15 850 25.1 3.3 37.9 39 -9.4 15
14:15 1021 30.15 850 25.1 2.6 36.8 39 -10.1 13.9
14:20 1021 30.15 850 25.1 3.7 38.6 35 -10.4 13.2
14:25 1021 30.15 850 25.1 4 39.2 38 -9.2 15.4
14:30 1021 30.15 850 25.1 3.8 38.8 38 -9.2 15.5
14:35 1021 30.15 850 25.1 3.3 38 39 -9.4 15
14:40 1020 30.12 850 25.1 3.1 37.6 41 -8.9 15.9
14:45 1020 30.12 850 25.1 3.6 38.4 38 -9.6 14.8
14:50 1020 30.12 850 25.1 3.5 38.3 40 -8.8 16.2
14:55 1020 30.12 850 25.1 3.8 38.8 39 -8.8 16.1
15:00 1020 30.12 850 25.1 3.2 37.8 40 -9 15.8
15:05 1020 30.12 850 25.1 3.6 38.6 39 -9 15.7
15:10 1020 30.12 850 25.1 3.9 39 39 -8.9 16
15:15 1020 30.12 849 25.07 3.9 39 39 -8.9 15.9
15:20 1020 30.12 849 25.07 3.5 38.3 41 -8.7 16.4
15:25 1020 30.12 849 25.07 3.6 38.6 39 -9 15.8
15:30 1020 30.12 849 25.07 4.1 39.5 38 -8.9 15.9
15:35 1020 30.12 849 25.07 4.2 39.5 38 -8.8 16.2
15:40 1020 30.12 849 25.07 4.3 39.7 38 -8.8 16.2
15:45 1020 30.12 849 25.07 4.5 40.1 36 -9.2 15.4
15:50 1020 30.12 849 25.07 4.1 39.4 39 -8.8 16.2
15:55 1020 30.12 849 25.07 3.8 38.9 39 -9 15.8
16:00 1020 30.12 849 25.07 3.8 38.8 39 -9 15.7
16:05 1020 30.12 849 25.07 3.7 38.6 41 -8.5 16.7
16:10 1020 30.12 849 25.07 3.7 38.6 39 -9 15.8
16:15 1020 30.12 849 25.07 3.9 39 38 -9.2 15.4
16:20 1020 30.12 849 25.07 3.4 38.1 40 -8.9 16
16:25 1020 30.12 849 25.07 3.4 38.2 38 -9.4 15.1
16:30 1020 30.12 849 25.07 3.3 37.9 39 -9.4 15.1
16:35 1020 30.12 849 25.07 3.5 38.4 38 -9.5 15
16:40 1020 30.12 849 25.07 3.5 38.3 38 -9.7 14.5
16:45 1020 30.12 849 25.07 3.5 38.4 37 -9.7 14.6
16:50 1020 30.12 849 25.07 3.5 38.3 39 -9.4 15.1
16:55 1020 30.12 849 25.07 3.2 37.8 40 -9 15.8
17:00 1020 30.12 849 25.07 3.2 37.8 41 -8.8 16.1
17:05 1020 30.12 849 25.07 3.3 37.9 40 -9 15.8
17:10 1020 30.12 849 25.07 3.2 37.7 39 -9.4 15.1
17:15 1020 30.12 849 25.07 3.1 37.6 39 -9.6 14.7
17:20 1020 30.12 849 25.07 3 37.5 39 -9.5 14.9
17:25 1020 30.12 849 25.07 2.9 37.2 41 -9.2 15.4
17:30 1020 30.12 849 25.07 2.6 36.6 42 -9.1 15.7
17:35 1020 30.12 849 25.07 2.4 36.2 43 -9.1 15.7
17:40 1020 30.12 849 25.07 2.3 36.1 44 -8.9 16
17:45 1020 30.12 849 25.07 2.1 35.8 46 -8.4 16.8
17:50 1020 30.12 849 25.07 1.4 34.5 48 -8.6 16.5
17:55 1020 30.12 849 25.07 1 33.8 49 -8.5 16.8
18:00 1020 30.12 849 25.07 1 33.7 49 -8.5 16.6
18:05 1020 30.12 849 25.07 0.8 33.4 49 -8.6 16.5
18:10 1020 30.12 849 25.07 0.6 33.1 50 -8.7 16.3
18:15 1020 30.12 849 25.07 0.4 32.7 50 -8.8 16.1
18:20 1020 30.12 850 25.1 0.2 32.4 52 -8.5 16.8
18:25 1020 30.12 850 25.1 -0.1 31.9 52 -8.8 16.2
18:30 1020 30.12 850 25.1 -0.4 31.3 55 -8.4 16.8
18:35 1020 30.12 850 25.1 -0.3 31.4 54 -8.6 16.6
18:40 1020 30.12 850 25.1 -0.3 31.4 55 -8.4 16.9
18:45 1020 30.12 850 25.1 -0.4 31.4 53 -8.8 16.2
18:50 1020 30.12 850 25.1 -0.1 31.9 53 -8.7 16.4
18:55 1020 30.12 850 25.1 -0 32 52 -8.7 16.3
19:00 1020 30.12 850 25.1 -0.1 31.9 52 -8.7 16.3
19:05 1020 30.12 850 25.1 -0.2 31.6 53 -8.7 16.3
19:10 1021 30.15 850 25.1 -0.3 31.5 52 -8.9 16
19:15 1021 30.15 850 25.1 -0.3 31.5 53 -8.6 16.4
19:20 1021 30.15 850 25.1 -0.6 30.9 53 -9 15.8
19:25 1020 30.12 850 25.1 -0.4 31.3 52 -9.1 15.7
19:30 1020 30.12 850 25.1 -0.3 31.5 53 -8.8 16.1
19:35 1020 30.12 850 25.1 -0.5 31.1 53 -8.9 16.1
19:40 1020 30.12 850 25.1 -0.7 30.8 54 -8.8 16.1
19:45 1021 30.15 850 25.1 -0.9 30.4 55 -8.8 16.2
19:50 1021 30.15 850 25.1 -1.4 29.5 57 -8.8 16.2
19:55 1021 30.15 850 25.1 -1.5 29.3 57 -8.9 15.9
20:00 1021 30.15 850 25.1 -1.5 29.3 58 -8.7 16.3
20:05 1021 30.15 850 25.1 -1.6 29.1 58 -8.9 15.9
20:10 1021 30.15 850 25.1 -1.5 29.4 55 -9.3 15.3
20:15 1021 30.15 850 25.1 -1.2 29.8 54 -9.4 15.1
20:20 1021 30.15 850 25.1 -1.3 29.6 54 -9.4 15.1
20:25 1021 30.15 850 25.1 -1.4 29.4 55 -9.4 15.2
20:30 1021 30.15 850 25.1 -1.4 29.5 54 -9.6 14.8
20:35 1021 30.15 850 25.1 -1.5 29.3 56 -9.3 15.3
20:40 1021 30.15 850 25.1 -1.6 29.1 56 -9.3 15.2
20:45 1021 30.15 850 25.1 -1.5 29.2 55 -9.5 14.8
20:50 1021 30.15 850 25.1 -1.2 29.9 52 -9.8 14.3
20:55 1021 30.15 850 25.1 -0.8 30.5 51 -9.6 14.7
21:00 1021 30.15 850 25.1 -0.5 31 49 -9.9 14.2
21:05 1021 30.15 850 25.1 -0.5 31.1 51 -9.6 14.8
21:10 1020 30.12 850 25.1 -0.6 30.9 51 -9.6 14.7
21:15 1020 30.12 850 25.1 -0.8 30.6 52 -9.4 15.2
21:20 1020 30.12 850 25.1 -1 30.2 54 -9.1 15.6
21:25 1020 30.12 850 25.1 -1.1 30.1 53 -9.5 14.9
21:30 1020 30.12 850 25.1 -0.9 30.3 52 -9.7 14.6
21:35 1020 30.12 850 25.1 -0.7 30.8 50 -9.8 14.4
21:40 1021 30.15 850 25.1 -0.6 31 51 -9.6 14.8
21:45 1021 30.15 850 25.1 -0.6 30.9 50 -9.7 14.6
21:50 1021 30.15 850 25.1 -0.5 31.1 51 -9.3 15.2
21:55 1021 30.15 850 25.1 -0.6 30.9 51 -9.6 14.8
22:00 1021 30.15 850 25.1 -0.7 30.7 53 -9.1 15.6
22:05 1021 30.15 850 25.1 -0.7 30.7 50 -9.8 14.3
22:10 1021 30.15 850 25.1 -0.3 31.5 50 -9.6 14.7
22:15 1021 30.15 850 25.1 -0.5 31.1 52 -9.2 15.4
22:20 1021 30.15 850 25.1 -0.3 31.5 47 -10.3 13.5
22:25 1021 30.15 850 25.1 0.2 32.4 46 -10.1 13.8
22:30 1021 30.15 850 25.1 -0.1 31.7 51 -9 15.8
22:35 1021 30.15 850 25.1 -1 30.3 54 -9.2 15.5
22:40 1021 30.15 850 25.1 -0.7 30.7 52 -9.4 15.1
22:45 1021 30.15 850 25.1 -0.5 31.1 50 -9.7 14.6
22:50 1021 30.15 850 25.1 -0.4 31.4 50 -9.5 14.9
22:55 1021 30.15 850 25.1 -0.5 31 54 -8.8 16.2
23:00 1021 30.15 850 25.1 -1.2 29.8 51 -10 14
23:05 1021 30.15 850 25.1 -0.7 30.8 49 -10.1 13.8
23:10 1021 30.15 850 25.1 -0.5 31.1 50 -9.7 14.5
23:15 1021 30.15 850 25.1 -0.5 31.1 50 -9.8 14.4
23:20 1021 30.15 850 25.1 -0.5 31 49 -9.9 14.1
23:25 1021 30.15 850 25.1 -0.6 30.9 47 -10.6 12.9
23:30 1021 30.15 850 25.1 -0.3 31.5 48 -10 13.9
23:35 1021 30.15 850 25.1 -0.5 31.2 48 -10.2 13.6
23:40 1021 30.15 850 25.1 -0.5 31.2 49 -10 14
23:45 1021 30.15 850 25.1 -0.6 31 50 -9.7 14.6
23:50 1021 30.15 850 25.1 -0.8 30.6 52 -9.5 14.9
23:55 1021 30.15 851 25.13 -0.8 30.5 49 -10.2 13.7
24:00 1021 30.15 850 25.1 -0.4 31.2 49 -10 14